createdAt,value
2018-10-15T00:00:35.026Z,19.00
2018-10-15T00:03:10.523Z,18.90
2018-10-15T00:05:46.910Z,19.00
2018-10-15T00:08:21.967Z,19.00
2018-10-15T00:10:57.186Z,19.00
2018-10-15T00:13:32.215Z,19.00
2018-10-15T00:16:07.467Z,19.10
2018-10-15T00:18:43.080Z,19.10
2018-10-15T00:21:17.990Z,19.10
2018-10-15T00:23:53.285Z,19.10
2018-10-15T00:26:28.242Z,19.10
2018-10-15T00:29:03.105Z,19.10
2018-10-15T00:31:38.156Z,19.10
2018-10-15T00:34:13.215Z,19.10
2018-10-15T00:36:48.838Z,19.10
2018-10-15T00:39:24.681Z,19.10
2018-10-15T00:41:59.774Z,19.10
2018-10-15T00:44:35.949Z,19.10
2018-10-15T00:47:11.202Z,19.10
2018-10-15T00:49:46.189Z,19.10
2018-10-15T00:52:21.323Z,19.10
2018-10-15T00:54:57.328Z,19.20
2018-10-15T00:57:32.141Z,19.20
2018-10-15T01:00:09.286Z,19.20
2018-10-15T01:02:45.352Z,19.20
2018-10-15T01:05:20.286Z,19.10
2018-10-15T01:07:55.470Z,19.10
2018-10-15T01:10:30.507Z,19.10
2018-10-15T01:13:06.008Z,19.00
2018-10-15T01:15:41.042Z,19.00
2018-10-15T01:18:16.948Z,19.00
2018-10-15T01:20:53.182Z,18.90
2018-10-15T01:23:28.488Z,19.00
2018-10-15T01:26:03.613Z,19.00
2018-10-15T01:28:38.866Z,19.00
2018-10-15T01:31:13.575Z,19.00
2018-10-15T01:33:48.611Z,19.00
2018-10-15T01:36:24.241Z,19.00
2018-10-15T01:38:59.976Z,19.10
2018-10-15T01:41:35.311Z,19.10
2018-10-15T01:44:10.528Z,19.10
2018-10-15T01:46:46.650Z,19.00
2018-10-15T01:49:21.762Z,19.10
2018-10-15T01:51:57.337Z,19.10
2018-10-15T01:54:33.543Z,19.00
2018-10-15T01:57:08.701Z,19.10
2018-10-15T01:59:43.893Z,19.10
2018-10-15T02:02:18.885Z,19.10
2018-10-15T02:04:53.783Z,19.00
2018-10-15T02:07:28.843Z,19.10
2018-10-15T02:10:04.021Z,19.00
2018-10-15T02:12:39.308Z,19.10
2018-10-15T02:15:15.139Z,19.00
2018-10-15T02:17:50.730Z,19.00
2018-10-15T02:20:25.500Z,19.00
2018-10-15T02:23:01.228Z,18.90
2018-10-15T02:25:36.252Z,18.90
2018-10-15T02:28:11.161Z,18.90
2018-10-15T02:30:46.525Z,18.90
2018-10-15T02:33:21.646Z,18.90
2018-10-15T02:35:56.786Z,18.90
2018-10-15T02:38:31.563Z,18.90
2018-10-15T02:41:07.305Z,18.90
2018-10-15T02:43:42.320Z,18.90
2018-10-15T02:46:18.635Z,19.00
2018-10-15T02:48:53.805Z,19.00
2018-10-15T02:51:28.652Z,19.00
2018-10-15T02:54:04.475Z,19.00
2018-10-15T02:56:40.141Z,19.00
2018-10-15T02:59:15.989Z,19.00
2018-10-15T03:01:51.296Z,19.00
2018-10-15T03:04:26.289Z,19.00
2018-10-15T03:07:01.355Z,19.00
2018-10-15T03:09:36.667Z,19.00
2018-10-15T03:12:11.593Z,19.00
2018-10-15T03:14:46.695Z,19.00
2018-10-15T03:17:22.140Z,19.00
2018-10-15T03:19:57.361Z,18.90
2018-10-15T03:22:32.655Z,18.90
2018-10-15T03:25:08.584Z,18.90
2018-10-15T03:27:43.583Z,18.90
2018-10-15T03:30:18.423Z,18.90
2018-10-15T03:32:54.295Z,18.90
2018-10-15T03:35:29.747Z,18.90
2018-10-15T03:38:05.167Z,18.90
2018-10-15T03:40:41.304Z,18.90
2018-10-15T03:43:17.319Z,18.90
2018-10-15T03:45:52.391Z,18.90
2018-10-15T03:48:27.466Z,18.90
2018-10-15T03:51:02.731Z,18.90
2018-10-15T03:53:37.831Z,18.90
2018-10-15T03:56:13.702Z,18.80
2018-10-15T03:58:48.543Z,18.90
2018-10-15T04:01:23.497Z,18.90
2018-10-15T04:03:58.771Z,18.90
2018-10-15T04:06:33.893Z,18.90
2018-10-15T04:09:10.803Z,18.90
2018-10-15T04:11:45.829Z,18.70
2018-10-15T04:14:21.325Z,18.80
2018-10-15T04:16:57.316Z,18.70
2018-10-15T04:19:32.406Z,18.70
2018-10-15T04:22:08.096Z,18.70
2018-10-15T04:24:43.123Z,18.70
2018-10-15T04:27:18.791Z,18.70
2018-10-15T04:29:54.649Z,18.70
2018-10-15T04:32:29.771Z,18.70
2018-10-15T04:35:05.616Z,18.70
2018-10-15T04:37:41.865Z,18.70
2018-10-15T04:40:17.923Z,18.70
2018-10-15T04:42:53.049Z,18.70
2018-10-15T04:45:28.176Z,18.70
2018-10-15T04:48:03.143Z,18.60
2018-10-15T04:50:38.119Z,18.60
2018-10-15T04:53:13.745Z,18.60
2018-10-15T04:55:48.977Z,18.50
2018-10-15T04:58:24.258Z,18.50
2018-10-15T05:01:00.073Z,18.40
2018-10-15T05:03:35.413Z,18.40
2018-10-15T05:06:10.569Z,18.30
2018-10-15T05:08:45.662Z,18.30
2018-10-15T05:11:20.828Z,18.30
2018-10-15T05:13:55.795Z,18.20
2018-10-15T05:16:31.698Z,18.20
2018-10-15T05:19:06.850Z,18.20
2018-10-15T05:21:41.992Z,18.10
2018-10-15T05:24:17.296Z,18.10
2018-10-15T05:26:53.311Z,18.00
2018-10-15T05:29:28.512Z,17.90
2018-10-15T05:32:03.485Z,17.90
2018-10-15T05:34:38.440Z,17.80
2018-10-15T05:37:14.413Z,17.80
2018-10-15T05:39:49.369Z,17.70
2018-10-15T05:42:24.306Z,17.70
2018-10-15T05:44:59.813Z,17.60
2018-10-15T05:47:34.846Z,17.60
2018-10-15T05:50:11.972Z,17.50
2018-10-15T05:52:46.855Z,17.50
2018-10-15T05:55:22.487Z,17.50
2018-10-15T05:57:57.626Z,17.50
2018-10-15T06:00:32.857Z,17.50
2018-10-15T06:03:08.059Z,17.50
2018-10-15T06:05:42.900Z,17.50
2018-10-15T06:08:18.029Z,17.60
2018-10-15T06:10:53.475Z,17.50
2018-10-15T06:13:29.246Z,17.60
2018-10-15T06:16:05.302Z,17.60
2018-10-15T06:18:45.470Z,17.60
2018-10-15T06:21:20.870Z,17.70
2018-10-15T06:23:56.265Z,17.70
2018-10-15T06:26:31.450Z,17.70
2018-10-15T06:29:10.966Z,17.70
2018-10-15T06:31:46.478Z,17.70
2018-10-15T06:34:22.165Z,17.70
2018-10-15T06:36:57.559Z,17.70
2018-10-15T06:39:32.626Z,17.70
2018-10-15T06:42:08.041Z,17.70
2018-10-15T06:44:43.417Z,17.70
2018-10-15T06:47:18.881Z,17.70
2018-10-15T06:49:54.922Z,17.70
2018-10-15T06:52:29.984Z,17.70
2018-10-15T06:55:05.489Z,17.70
2018-10-15T06:57:40.989Z,17.50
2018-10-15T07:00:17.062Z,17.70
2018-10-15T07:02:52.246Z,17.60
2018-10-15T07:05:27.123Z,17.70
2018-10-15T07:08:02.081Z,17.70
2018-10-15T07:10:37.244Z,17.70
2018-10-15T07:13:12.231Z,17.70
2018-10-15T07:15:47.632Z,17.70
2018-10-15T07:18:22.652Z,17.80
2018-10-15T07:20:57.837Z,17.80
2018-10-15T07:23:33.282Z,17.90
2018-10-15T07:26:08.818Z,17.90
2018-10-15T07:28:44.083Z,18.00
2018-10-15T07:31:20.016Z,18.00
2018-10-15T07:33:55.940Z,18.00
2018-10-15T07:36:31.268Z,18.10
2018-10-15T07:39:10.558Z,18.10
2018-10-15T07:41:46.161Z,18.10
2018-10-15T07:44:22.291Z,18.20
2018-10-15T07:46:58.389Z,18.20
2018-10-15T07:49:34.118Z,18.30
2018-10-15T07:52:09.432Z,18.30
2018-10-15T07:54:45.128Z,18.30
2018-10-15T07:57:20.578Z,18.30
2018-10-15T07:59:55.946Z,18.30
2018-10-15T08:02:31.059Z,18.40
2018-10-15T08:05:06.573Z,18.40
2018-10-15T08:07:41.737Z,18.50
2018-10-15T08:10:16.732Z,18.50
2018-10-15T08:12:52.646Z,18.60
2018-10-15T08:15:27.980Z,18.60
2018-10-15T08:18:03.995Z,18.70
2018-10-15T08:20:38.957Z,18.70
2018-10-15T08:23:14.441Z,18.70
2018-10-15T08:25:50.032Z,18.80
2018-10-15T08:28:25.624Z,18.90
2018-10-15T08:31:00.902Z,18.90
2018-10-15T08:33:36.345Z,18.90
2018-10-15T08:36:11.413Z,19.00
2018-10-15T08:38:46.449Z,19.00
2018-10-15T08:41:21.562Z,19.00
2018-10-15T08:43:57.428Z,19.00
2018-10-15T08:46:33.653Z,19.10
2018-10-15T08:49:08.803Z,19.10
2018-10-15T08:51:44.067Z,19.20
2018-10-15T08:54:19.764Z,19.20
2018-10-15T08:56:54.992Z,19.20
2018-10-15T08:59:31.157Z,19.30
2018-10-15T09:02:07.097Z,19.30
2018-10-15T09:04:42.531Z,19.40
2018-10-15T09:07:18.155Z,19.50
2018-10-15T09:09:53.463Z,19.50
2018-10-15T09:12:28.973Z,19.60
2018-10-15T09:15:05.215Z,19.60
2018-10-15T09:17:42.367Z,19.70
2018-10-15T09:20:17.965Z,19.70
2018-10-15T09:22:53.503Z,19.80
2018-10-15T09:25:28.574Z,19.90
2018-10-15T09:28:04.623Z,19.80
2018-10-15T09:30:46.614Z,19.80
2018-10-15T09:33:22.837Z,19.90
2018-10-15T09:35:58.651Z,19.90
2018-10-15T09:38:34.268Z,19.90
2018-10-15T09:41:09.843Z,19.90
2018-10-15T09:43:45.125Z,20.00
2018-10-15T09:46:20.725Z,20.10
2018-10-15T09:48:55.825Z,20.20
2018-10-15T09:51:32.041Z,20.20
2018-10-15T09:54:07.216Z,20.30
2018-10-15T09:56:42.199Z,20.40
2018-10-15T09:59:18.318Z,20.50
2018-10-15T10:01:58.552Z,20.50
2018-10-15T10:04:34.032Z,20.60
2018-10-15T10:07:09.723Z,20.70
2018-10-15T10:09:44.556Z,20.80
2018-10-15T10:12:20.010Z,20.80
2018-10-15T10:14:55.411Z,20.90
2018-10-15T10:17:30.659Z,20.90
2018-10-15T10:20:06.553Z,21.00
2018-10-15T10:22:41.703Z,21.00
2018-10-15T10:25:18.281Z,21.10
2018-10-15T10:27:53.678Z,21.20
2018-10-15T10:30:28.832Z,21.30
2018-10-15T10:33:04.054Z,21.40
2018-10-15T10:35:58.428Z,21.40
2018-10-15T10:38:42.545Z,21.40
2018-10-15T10:41:18.214Z,21.50
2018-10-15T10:43:53.578Z,21.50
2018-10-15T10:46:28.732Z,21.60
2018-10-15T10:49:04.547Z,21.60
2018-10-15T10:51:39.495Z,21.60
2018-10-15T10:54:14.815Z,21.70
2018-10-15T10:56:49.953Z,21.70
2018-10-15T10:59:26.056Z,21.80
2018-10-15T11:02:01.351Z,21.80
2018-10-15T11:04:36.468Z,21.80
2018-10-15T11:07:11.871Z,21.90
2018-10-15T11:09:48.085Z,22.00
2018-10-15T11:12:23.183Z,22.00
2018-10-15T11:14:59.224Z,22.00
2018-10-15T11:17:34.566Z,22.00
2018-10-15T11:20:10.091Z,22.10
2018-10-15T11:22:45.220Z,22.10
2018-10-15T11:25:21.338Z,22.20
2018-10-15T11:27:56.576Z,22.20
2018-10-15T11:30:31.736Z,22.30
2018-10-15T11:33:06.848Z,22.30
2018-10-15T11:35:42.616Z,22.40
2018-10-15T11:38:17.675Z,22.60
2018-10-15T11:40:53.720Z,22.60
2018-10-15T11:43:29.013Z,22.60
2018-10-15T11:46:04.414Z,22.60
2018-10-15T11:48:39.726Z,22.70
2018-10-15T11:51:14.853Z,22.70
2018-10-15T11:53:50.058Z,22.70
2018-10-15T11:56:25.153Z,22.80
2018-10-15T11:59:00.865Z,22.80
2018-10-15T12:01:36.314Z,22.90
2018-10-15T12:04:12.319Z,23.00
2018-10-15T12:06:47.630Z,23.00
2018-10-15T12:09:23.174Z,23.10
2018-10-15T12:11:58.461Z,23.20
2018-10-15T12:14:33.562Z,23.30
2018-10-15T12:17:08.732Z,23.30
2018-10-15T12:19:43.720Z,23.30
2018-10-15T12:22:19.141Z,23.40
2018-10-15T12:24:54.457Z,23.40
2018-10-15T12:27:29.360Z,23.40
2018-10-15T12:30:04.570Z,23.50
2018-10-15T12:32:40.133Z,23.70
2018-10-15T12:35:16.703Z,23.70
2018-10-15T12:37:52.155Z,23.80
2018-10-15T12:40:27.215Z,23.80
2018-10-15T12:43:02.385Z,23.90
2018-10-15T12:45:42.456Z,24.00
2018-10-15T12:48:18.238Z,24.00
2018-10-15T12:50:53.615Z,24.00
2018-10-15T12:53:28.628Z,24.00
2018-10-15T12:56:04.579Z,24.00
2018-10-15T12:58:39.788Z,24.00
2018-10-15T13:01:15.980Z,24.10
2018-10-15T13:03:52.084Z,24.10
2018-10-15T13:06:27.862Z,24.00
2018-10-15T13:09:04.642Z,24.00
2018-10-15T13:11:40.403Z,24.00
2018-10-15T13:14:15.514Z,24.00
2018-10-15T13:16:50.958Z,23.90
2018-10-15T13:19:26.536Z,23.90
2018-10-15T13:22:01.662Z,23.80
2018-10-15T13:24:37.082Z,23.80
2018-10-15T13:27:12.859Z,23.80
2018-10-15T13:29:47.898Z,23.90
2018-10-15T13:32:23.529Z,23.90
2018-10-15T13:34:58.699Z,23.80
2018-10-15T13:37:34.743Z,23.80
2018-10-15T13:40:09.781Z,23.80
2018-10-15T13:42:44.593Z,23.60
2018-10-15T13:45:20.919Z,23.70
2018-10-15T13:50:20.589Z,23.60
2018-10-15T13:52:50.261Z,23.40
2018-10-15T13:55:20.114Z,23.30
2018-10-15T13:57:49.764Z,23.40
2018-10-15T14:00:29.379Z,23.40
2018-10-15T14:02:59.742Z,23.60
2018-10-15T14:05:34.627Z,23.40
2018-10-15T14:08:09.560Z,23.40
2018-10-15T14:10:44.619Z,23.50
2018-10-15T14:13:19.989Z,23.50
2018-10-15T14:15:55.222Z,23.40
2018-10-15T14:18:30.214Z,23.50
2018-10-15T14:21:06.176Z,23.40
2018-10-15T14:23:41.464Z,23.50
2018-10-15T14:26:17.065Z,23.50
2018-10-15T14:28:49.293Z,23.60
2018-10-15T14:31:24.622Z,23.60
2018-10-15T14:33:59.990Z,23.70
2018-10-15T14:36:29.867Z,23.60
2018-10-15T14:39:06.844Z,23.70
2018-10-15T14:41:42.303Z,23.80
2018-10-15T14:44:17.340Z,24.10
2018-10-15T14:46:52.224Z,24.20
2018-10-15T14:49:24.410Z,24.30
2018-10-15T14:52:00.000Z,24.30
2018-10-15T14:54:35.321Z,24.10
2018-10-15T14:57:10.280Z,24.40
2018-10-15T14:59:45.694Z,24.20
2018-10-15T15:02:20.678Z,24.40
2018-10-15T15:04:55.589Z,24.40
2018-10-15T15:07:30.786Z,24.30
2018-10-15T15:10:14.686Z,24.30
2018-10-15T15:13:00.688Z,24.40
2018-10-15T15:15:36.487Z,24.40
2018-10-15T15:18:11.465Z,24.40
2018-10-15T15:20:47.301Z,24.40
2018-10-15T15:23:16.704Z,24.40
2018-10-15T15:25:51.816Z,24.40
2018-10-15T15:28:27.070Z,24.40
2018-10-15T15:31:02.432Z,24.40
2018-10-15T15:33:37.427Z,24.40
2018-10-15T15:36:07.483Z,23.40
2018-10-15T15:38:42.642Z,24.40
2018-10-15T15:41:18.730Z,24.30
2018-10-15T15:43:48.647Z,24.10
2018-10-15T15:46:24.656Z,24.20
2018-10-15T15:49:04.011Z,24.10
2018-10-15T15:51:39.545Z,24.10
2018-10-15T15:54:14.790Z,24.10
2018-10-15T15:56:51.011Z,24.00
2018-10-15T15:59:26.130Z,24.00
2018-10-15T16:02:01.679Z,23.90
2018-10-15T16:04:37.099Z,23.80
2018-10-15T16:07:13.186Z,23.70
2018-10-15T16:09:48.539Z,23.60
2018-10-15T16:12:24.780Z,23.50
2018-10-15T16:15:00.580Z,23.40
2018-10-15T16:17:36.407Z,23.30
2018-10-15T16:20:12.014Z,23.10
2018-10-15T16:22:47.378Z,23.00
2018-10-15T16:25:22.705Z,22.80
2018-10-15T16:27:57.819Z,22.70
2018-10-15T16:30:33.896Z,22.80
2018-10-15T16:33:09.209Z,22.50
2018-10-15T16:35:44.413Z,22.30
2018-10-15T16:38:19.990Z,22.20
2018-10-15T16:40:55.102Z,22.20
2018-10-15T16:43:29.946Z,22.10
2018-10-15T16:46:00.285Z,22.10
2018-10-15T16:48:37.363Z,22.00
2018-10-15T16:51:12.676Z,21.80
2018-10-15T16:53:47.799Z,21.70
2018-10-15T16:56:22.925Z,21.60
2018-10-15T16:58:58.147Z,21.50
2018-10-15T17:01:33.262Z,21.50
2018-10-15T17:04:08.592Z,21.30
2018-10-15T17:06:43.742Z,21.20
2018-10-15T17:09:18.855Z,21.20
2018-10-15T17:11:54.322Z,21.10
2018-10-15T17:14:29.769Z,21.10
2018-10-15T17:17:05.390Z,21.00
2018-10-15T17:19:40.961Z,20.90
2018-10-15T17:22:16.408Z,20.90
2018-10-15T17:24:52.181Z,20.80
2018-10-15T17:27:27.674Z,20.70
2018-10-15T17:30:03.231Z,20.70
2018-10-15T17:32:38.285Z,20.60
2018-10-15T17:35:13.553Z,20.50
2018-10-15T17:37:48.741Z,20.50
2018-10-15T17:40:23.876Z,20.40
2018-10-15T17:42:59.881Z,20.40
2018-10-15T17:45:35.073Z,20.30
2018-10-15T17:48:04.938Z,20.30
2018-10-15T17:50:40.051Z,20.20
2018-10-15T17:53:17.029Z,20.20
2018-10-15T17:55:51.960Z,20.10
2018-10-15T17:58:26.865Z,20.10
2018-10-15T18:01:02.294Z,20.00
2018-10-15T18:03:37.449Z,20.10
2018-10-15T18:06:12.955Z,19.90
2018-10-15T18:08:42.705Z,19.90
2018-10-15T18:11:17.627Z,19.90
2018-10-15T18:13:52.755Z,19.80
2018-10-15T18:16:28.052Z,19.80
2018-10-15T18:19:03.265Z,19.70
2018-10-15T18:21:38.439Z,19.70
2018-10-15T18:24:14.152Z,19.70
2018-10-15T18:26:49.223Z,19.70
2018-10-15T18:29:22.967Z,19.70
2018-10-15T18:31:58.869Z,19.70
2018-10-15T18:34:34.170Z,19.60
2018-10-15T18:37:03.626Z,19.60
2018-10-15T18:39:40.530Z,19.60
2018-10-15T18:42:15.909Z,19.50
2018-10-15T18:44:51.549Z,19.50
2018-10-15T18:47:27.102Z,19.50
2018-10-15T18:50:02.413Z,19.40
2018-10-15T18:52:37.990Z,19.40
2018-10-15T18:55:13.428Z,19.30
2018-10-15T18:57:49.008Z,19.30
2018-10-15T19:00:24.283Z,19.30
2018-10-15T19:02:59.162Z,19.20
2018-10-15T19:05:34.673Z,19.10
2018-10-15T19:08:05.460Z,19.20
2018-10-15T19:10:41.505Z,19.00
2018-10-15T19:13:17.431Z,19.00
2018-10-15T19:15:52.587Z,18.90
2018-10-15T19:18:27.809Z,18.90
2018-10-15T19:21:03.452Z,18.80
2018-10-15T19:23:38.566Z,18.80
2018-10-15T19:26:13.797Z,18.80
2018-10-15T19:28:49.400Z,18.70
2018-10-15T19:31:25.032Z,18.70
2018-10-15T19:33:57.363Z,18.80
2018-10-15T19:36:33.113Z,18.60
2018-10-15T19:39:10.731Z,18.60
2018-10-15T19:41:50.959Z,18.60
2018-10-15T19:44:26.141Z,18.50
2018-10-15T19:47:01.875Z,18.50
2018-10-15T19:49:39.447Z,18.50
2018-10-15T19:52:16.169Z,18.50
2018-10-15T19:54:51.913Z,18.40
2018-10-15T19:57:27.370Z,18.40
2018-10-15T20:00:02.519Z,18.40
2018-10-15T20:02:37.933Z,18.40
2018-10-15T20:05:13.197Z,18.30
2018-10-15T20:07:48.728Z,18.30
2018-10-15T20:10:23.676Z,18.30
2018-10-15T20:12:58.836Z,18.20
2018-10-15T20:15:34.383Z,18.30
2018-10-15T20:18:09.489Z,18.20
2018-10-15T20:20:44.872Z,18.20
2018-10-15T20:23:20.921Z,18.10
2018-10-15T20:25:56.233Z,18.10
2018-10-15T20:28:32.111Z,18.00
2018-10-15T20:31:07.487Z,18.00
2018-10-15T20:33:43.266Z,18.10
2018-10-15T20:36:18.387Z,18.00
2018-10-15T20:38:53.664Z,18.00
2018-10-15T20:41:29.370Z,18.00
2018-10-15T20:44:04.803Z,17.90
2018-10-15T20:46:34.798Z,17.90
2018-10-15T20:49:11.065Z,17.80
2018-10-15T20:51:45.911Z,17.90
2018-10-15T20:54:21.197Z,17.80
2018-10-15T20:56:56.889Z,17.80
2018-10-15T20:59:32.044Z,17.70
2018-10-15T21:02:07.172Z,17.70
2018-10-15T21:04:43.359Z,17.70
2018-10-15T21:07:16.364Z,17.70
2018-10-15T21:09:51.601Z,17.70
2018-10-15T21:12:27.321Z,17.60
2018-10-15T21:15:09.269Z,17.60
2018-10-15T21:17:44.642Z,17.60
2018-10-15T21:20:19.678Z,17.60
2018-10-15T21:22:55.415Z,17.60
2018-10-15T21:25:30.560Z,17.60
2018-10-15T21:28:05.980Z,17.50
2018-10-15T21:30:41.442Z,17.40
2018-10-15T21:33:16.767Z,17.40
2018-10-15T21:35:51.701Z,17.40
2018-10-15T21:38:27.480Z,17.30
2018-10-15T21:41:02.551Z,17.30
2018-10-15T21:43:38.079Z,17.20
2018-10-15T21:46:13.845Z,17.20
2018-10-15T21:48:48.927Z,17.20
2018-10-15T21:51:24.202Z,17.10
2018-10-15T21:53:59.686Z,17.10
2018-10-15T21:56:35.073Z,17.10
2018-10-15T21:59:10.206Z,17.10
2018-10-15T22:01:45.840Z,17.00
2018-10-15T22:04:21.504Z,17.00
2018-10-15T22:06:57.106Z,17.00
2018-10-15T22:09:32.726Z,16.90
2018-10-15T22:12:07.830Z,17.00
2018-10-15T22:14:43.003Z,16.90
2018-10-15T22:17:18.476Z,16.90
2018-10-15T22:19:53.525Z,16.90
2018-10-15T22:22:28.960Z,16.90
2018-10-15T22:24:59.295Z,16.90
2018-10-15T22:27:34.654Z,16.90
2018-10-15T22:30:12.501Z,16.80
2018-10-15T22:32:47.508Z,16.80
2018-10-15T22:35:23.576Z,16.80
2018-10-15T22:37:54.609Z,16.80
2018-10-15T22:40:29.725Z,16.70
2018-10-15T22:43:04.877Z,16.70
2018-10-15T22:45:40.581Z,16.70
2018-10-15T22:48:15.396Z,16.70
2018-10-15T22:50:50.515Z,16.70
2018-10-15T22:53:25.829Z,16.70
2018-10-15T22:56:00.719Z,16.60
2018-10-15T22:58:31.144Z,16.60
2018-10-15T23:01:06.576Z,16.60
2018-10-15T23:03:42.469Z,16.60
2018-10-15T23:06:17.453Z,16.60
2018-10-15T23:08:52.716Z,16.60
2018-10-15T23:11:27.576Z,16.50
2018-10-15T23:14:02.616Z,16.50
2018-10-15T23:16:37.674Z,16.50
2018-10-15T23:19:13.686Z,16.50
2018-10-15T23:21:48.699Z,16.50
2018-10-15T23:24:24.127Z,16.40
2018-10-15T23:26:59.106Z,16.50
2018-10-15T23:29:34.293Z,16.40
2018-10-15T23:32:10.124Z,16.40
2018-10-15T23:34:45.323Z,16.40
2018-10-15T23:37:21.383Z,16.40
2018-10-15T23:39:57.217Z,16.30
2018-10-15T23:42:31.977Z,16.40
2018-10-15T23:45:08.237Z,16.40
2018-10-15T23:47:38.471Z,16.30
2018-10-15T23:50:15.137Z,16.30
2018-10-15T23:52:50.331Z,16.30
2018-10-15T23:55:25.803Z,16.30
2018-10-15T23:58:01.693Z,16.30
